sensor_id;sensor_type;location;lat;lon;timestamp;temperature;humidity
12926;DHT22;6529;50.566;9.774;2023-05-07T00:01:48;15.20;99.90
12926;DHT22;6529;50.566;9.774;2023-05-07T00:04:14;15.20;1.00
12926;DHT22;6529;50.566;9.774;2023-05-07T00:06:39;15.10;1.00
12926;DHT22;6529;50.566;9.774;2023-05-07T00:09:06;15.20;1.00
12926;DHT22;6529;50.566;9.774;2023-05-07T00:11:31;15.10;1.00
12926;DHT22;6529;50.566;9.774;2023-05-07T00:13:57;15.10;99.90
12926;DHT22;6529;50.566;9.774;2023-05-07T00:16:23;15.10;1.00
12926;DHT22;6529;50.566;9.774;2023-05-07T00:18:48;15.00;1.00
12926;DHT22;6529;50.566;9.774;2023-05-07T00:21:14;15.00;1.00
12926;DHT22;6529;50.566;9.774;2023-05-07T00:23:40;15.00;1.00
12926;DHT22;6529;50.566;9.774;2023-05-07T00:26:05;15.10;99.90
12926;DHT22;6529;50.566;9.774;2023-05-07T00:28:31;15.20;99.90
12926;DHT22;6529;50.566;9.774;2023-05-07T00:30:56;15.30;99.90
12926;DHT22;6529;50.566;9.774;2023-05-07T00:33:22;15.30;1.00
12926;DHT22;6529;50.566;9.774;2023-05-07T00:35:48;15.30;1.00
12926;DHT22;6529;50.566;9.774;2023-05-07T00:38:14;15.20;13.20
12926;DHT22;6529;50.566;9.774;2023-05-07T00:40:39;15.20;99.90
12926;DHT22;6529;50.566;9.774;2023-05-07T00:43:06;15.20;1.00
12926;DHT22;6529;50.566;9.774;2023-05-07T00:45:32;15.10;99.90
12926;DHT22;6529;50.566;9.774;2023-05-07T00:48:00;15.10;1.00
12926;DHT22;6529;50.566;9.774;2023-05-07T00:50:27;15.00;1.00
12926;DHT22;6529;50.566;9.774;2023-05-07T00:52:53;15.10;1.00
12926;DHT22;6529;50.566;9.774;2023-05-07T00:55:19;15.10;99.90
12926;DHT22;6529;50.566;9.774;2023-05-07T00:57:45;15.10;1.00
12926;DHT22;6529;50.566;9.774;2023-05-07T01:00:11;15.20;11.00
12926;DHT22;6529;50.566;9.774;2023-05-07T01:02:41;15.10;99.90
12926;DHT22;6529;50.566;9.774;2023-05-07T01:05:10;15.10;1.00
12926;DHT22;6529;50.566;9.774;2023-05-07T01:07:37;15.10;99.90
12926;DHT22;6529;50.566;9.774;2023-05-07T01:10:04;15.10;1.00
12926;DHT22;6529;50.566;9.774;2023-05-07T01:12:31;15.20;1.00
12926;DHT22;6529;50.566;9.774;2023-05-07T01:14:57;15.10;99.90
12926;DHT22;6529;50.566;9.774;2023-05-07T01:17:23;15.10;1.00
12926;DHT22;6529;50.566;9.774;2023-05-07T01:19:49;15.20;99.90
12926;DHT22;6529;50.566;9.774;2023-05-07T01:22:16;15.00;2.60
12926;DHT22;6529;50.566;9.774;2023-05-07T01:24:46;15.00;99.90
12926;DHT22;6529;50.566;9.774;2023-05-07T01:27:12;14.90;99.90
12926;DHT22;6529;50.566;9.774;2023-05-07T01:29:38;14.90;1.00
12926;DHT22;6529;50.566;9.774;2023-05-07T01:32:04;14.90;1.00
12926;DHT22;6529;50.566;9.774;2023-05-07T01:34:32;14.90;1.00
12926;DHT22;6529;50.566;9.774;2023-05-07T01:36:59;14.90;1.00
12926;DHT22;6529;50.566;9.774;2023-05-07T01:39:27;14.80;1.00
12926;DHT22;6529;50.566;9.774;2023-05-07T01:41:54;14.80;1.00
12926;DHT22;6529;50.566;9.774;2023-05-07T01:44:21;14.80;1.00
12926;DHT22;6529;50.566;9.774;2023-05-07T01:46:47;14.80;1.00
12926;DHT22;6529;50.566;9.774;2023-05-07T01:49:13;14.80;1.00
12926;DHT22;6529;50.566;9.774;2023-05-07T01:51:39;14.80;1.00
12926;DHT22;6529;50.566;9.774;2023-05-07T01:54:05;14.80;1.00
12926;DHT22;6529;50.566;9.774;2023-05-07T01:56:32;14.80;1.00
12926;DHT22;6529;50.566;9.774;2023-05-07T01:58:57;14.70;1.00
12926;DHT22;6529;50.566;9.774;2023-05-07T02:01:23;14.80;1.00
12926;DHT22;6529;50.566;9.774;2023-05-07T02:03:48;14.80;1.00
12926;DHT22;6529;50.566;9.774;2023-05-07T02:06:14;14.60;1.00
12926;DHT22;6529;50.566;9.774;2023-05-07T02:08:40;14.60;1.00
12926;DHT22;6529;50.566;9.774;2023-05-07T02:11:06;14.50;1.00
12926;DHT22;6529;50.566;9.774;2023-05-07T02:13:32;14.50;1.00
12926;DHT22;6529;50.566;9.774;2023-05-07T02:15:58;14.60;1.00
12926;DHT22;6529;50.566;9.774;2023-05-07T02:18:24;14.60;1.00
12926;DHT22;6529;50.566;9.774;2023-05-07T02:20:50;14.70;1.00
12926;DHT22;6529;50.566;9.774;2023-05-07T02:23:15;14.60;1.00
12926;DHT22;6529;50.566;9.774;2023-05-07T02:25:41;14.50;1.00
12926;DHT22;6529;50.566;9.774;2023-05-07T02:28:06;14.40;1.00
12926;DHT22;6529;50.566;9.774;2023-05-07T02:30:32;14.40;1.00
12926;DHT22;6529;50.566;9.774;2023-05-07T02:32:58;14.30;1.00
12926;DHT22;6529;50.566;9.774;2023-05-07T02:35:26;14.40;1.00
12926;DHT22;6529;50.566;9.774;2023-05-07T02:37:52;14.40;1.00
12926;DHT22;6529;50.566;9.774;2023-05-07T02:40:18;14.40;1.00
12926;DHT22;6529;50.566;9.774;2023-05-07T02:42:43;14.40;1.00
12926;DHT22;6529;50.566;9.774;2023-05-07T02:45:09;14.40;1.00
12926;DHT22;6529;50.566;9.774;2023-05-07T02:47:35;14.40;1.00
12926;DHT22;6529;50.566;9.774;2023-05-07T02:50:01;14.30;1.00
12926;DHT22;6529;50.566;9.774;2023-05-07T02:52:26;14.20;1.00
12926;DHT22;6529;50.566;9.774;2023-05-07T02:54:52;14.10;53.20
12926;DHT22;6529;50.566;9.774;2023-05-07T02:57:17;14.00;99.90
12926;DHT22;6529;50.566;9.774;2023-05-07T02:59:43;14.00;99.90
12926;DHT22;6529;50.566;9.774;2023-05-07T03:02:09;13.90;99.90
12926;DHT22;6529;50.566;9.774;2023-05-07T03:04:35;13.90;99.90
12926;DHT22;6529;50.566;9.774;2023-05-07T03:07:00;13.90;99.90
12926;DHT22;6529;50.566;9.774;2023-05-07T03:09:26;14.00;99.90
12926;DHT22;6529;50.566;9.774;2023-05-07T03:11:51;14.10;99.90
12926;DHT22;6529;50.566;9.774;2023-05-07T03:14:17;14.00;80.80
12926;DHT22;6529;50.566;9.774;2023-05-07T03:16:42;14.00;99.90
12926;DHT22;6529;50.566;9.774;2023-05-07T03:19:08;14.10;55.70
12926;DHT22;6529;50.566;9.774;2023-05-07T03:21:34;14.10;56.00
12926;DHT22;6529;50.566;9.774;2023-05-07T03:23:59;14.10;17.20
12926;DHT22;6529;50.566;9.774;2023-05-07T03:26:25;14.10;9.60
12926;DHT22;6529;50.566;9.774;2023-05-07T03:28:51;14.10;1.00
12926;DHT22;6529;50.566;9.774;2023-05-07T03:31:17;14.10;2.90
12926;DHT22;6529;50.566;9.774;2023-05-07T03:33:57;14.10;4.40
12926;DHT22;6529;50.566;9.774;2023-05-07T03:36:23;14.20;2.10
12926;DHT22;6529;50.566;9.774;2023-05-07T03:38:49;14.10;19.80
12926;DHT22;6529;50.566;9.774;2023-05-07T03:41:15;14.10;32.10
12926;DHT22;6529;50.566;9.774;2023-05-07T03:43:41;14.10;5.00
12926;DHT22;6529;50.566;9.774;2023-05-07T03:46:07;14.10;12.00
12926;DHT22;6529;50.566;9.774;2023-05-07T03:48:32;14.10;48.70
12926;DHT22;6529;50.566;9.774;2023-05-07T03:50:58;14.00;42.00
12926;DHT22;6529;50.566;9.774;2023-05-07T03:53:24;14.10;22.20
12926;DHT22;6529;50.566;9.774;2023-05-07T03:55:49;14.10;72.50
12926;DHT22;6529;50.566;9.774;2023-05-07T03:58:15;14.00;81.50
12926;DHT22;6529;50.566;9.774;2023-05-07T04:00:41;14.00;90.80
12926;DHT22;6529;50.566;9.774;2023-05-07T04:03:07;14.10;64.00
12926;DHT22;6529;50.566;9.774;2023-05-07T04:05:33;14.10;79.70
12926;DHT22;6529;50.566;9.774;2023-05-07T04:07:59;14.10;73.50
12926;DHT22;6529;50.566;9.774;2023-05-07T04:10:24;14.10;52.70
12926;DHT22;6529;50.566;9.774;2023-05-07T04:12:50;14.00;68.40
12926;DHT22;6529;50.566;9.774;2023-05-07T04:15:16;14.00;99.90
12926;DHT22;6529;50.566;9.774;2023-05-07T04:17:41;14.00;99.90
12926;DHT22;6529;50.566;9.774;2023-05-07T04:20:14;14.00;99.90
12926;DHT22;6529;50.566;9.774;2023-05-07T04:22:40;14.00;99.90
12926;DHT22;6529;50.566;9.774;2023-05-07T04:25:06;14.10;96.90
12926;DHT22;6529;50.566;9.774;2023-05-07T04:27:32;14.10;99.70
12926;DHT22;6529;50.566;9.774;2023-05-07T04:29:57;14.10;89.30
12926;DHT22;6529;50.566;9.774;2023-05-07T04:32:23;14.10;97.40
12926;DHT22;6529;50.566;9.774;2023-05-07T04:34:50;14.10;17.20
12926;DHT22;6529;50.566;9.774;2023-05-07T04:37:15;14.10;30.20
12926;DHT22;6529;50.566;9.774;2023-05-07T04:39:41;14.10;78.20
12926;DHT22;6529;50.566;9.774;2023-05-07T04:42:06;14.10;75.10
12926;DHT22;6529;50.566;9.774;2023-05-07T04:44:34;14.20;79.70
12926;DHT22;6529;50.566;9.774;2023-05-07T04:47:00;14.20;85.00
12926;DHT22;6529;50.566;9.774;2023-05-07T04:49:26;14.30;1.00
12926;DHT22;6529;50.566;9.774;2023-05-07T04:51:51;14.20;1.00
12926;DHT22;6529;50.566;9.774;2023-05-07T04:54:17;14.20;1.00
12926;DHT22;6529;50.566;9.774;2023-05-07T04:56:43;14.10;35.80
12926;DHT22;6529;50.566;9.774;2023-05-07T04:59:08;14.10;99.90
12926;DHT22;6529;50.566;9.774;2023-05-07T05:01:34;14.10;99.90
12926;DHT22;6529;50.566;9.774;2023-05-07T05:04:00;14.10;95.60
12926;DHT22;6529;50.566;9.774;2023-05-07T05:06:25;14.00;99.90
12926;DHT22;6529;50.566;9.774;2023-05-07T05:08:51;13.90;99.90
12926;DHT22;6529;50.566;9.774;2023-05-07T05:11:17;14.00;99.90
12926;DHT22;6529;50.566;9.774;2023-05-07T05:13:42;14.00;70.20
12926;DHT22;6529;50.566;9.774;2023-05-07T05:16:08;14.00;99.90
12926;DHT22;6529;50.566;9.774;2023-05-07T05:18:33;14.10;99.90
12926;DHT22;6529;50.566;9.774;2023-05-07T05:20:59;14.10;99.90
12926;DHT22;6529;50.566;9.774;2023-05-07T05:23:24;14.10;99.90
12926;DHT22;6529;50.566;9.774;2023-05-07T05:25:50;14.20;28.50
12926;DHT22;6529;50.566;9.774;2023-05-07T05:28:20;14.30;78.80
12926;DHT22;6529;50.566;9.774;2023-05-07T05:30:45;14.30;1.00
12926;DHT22;6529;50.566;9.774;2023-05-07T05:33:11;14.30;1.00
12926;DHT22;6529;50.566;9.774;2023-05-07T05:35:37;14.10;26.90
12926;DHT22;6529;50.566;9.774;2023-05-07T05:38:02;14.10;46.80
12926;DHT22;6529;50.566;9.774;2023-05-07T05:40:28;14.10;24.60
12926;DHT22;6529;50.566;9.774;2023-05-07T05:42:54;14.10;1.00
12926;DHT22;6529;50.566;9.774;2023-05-07T05:45:19;14.10;1.00
12926;DHT22;6529;50.566;9.774;2023-05-07T05:47:45;14.10;3.40
12926;DHT22;6529;50.566;9.774;2023-05-07T05:50:11;14.10;51.50
12926;DHT22;6529;50.566;9.774;2023-05-07T05:52:36;14.20;68.80
12926;DHT22;6529;50.566;9.774;2023-05-07T05:55:02;14.30;10.60
12926;DHT22;6529;50.566;9.774;2023-05-07T05:57:27;14.30;1.00
12926;DHT22;6529;50.566;9.774;2023-05-07T05:59:53;14.30;1.00
12926;DHT22;6529;50.566;9.774;2023-05-07T06:02:19;14.30;1.00
12926;DHT22;6529;50.566;9.774;2023-05-07T06:04:44;14.30;1.00
12926;DHT22;6529;50.566;9.774;2023-05-07T06:07:10;14.30;1.00
12926;DHT22;6529;50.566;9.774;2023-05-07T06:09:36;14.40;1.00
12926;DHT22;6529;50.566;9.774;2023-05-07T06:12:02;14.40;1.00
12926;DHT22;6529;50.566;9.774;2023-05-07T06:14:28;14.40;1.00
12926;DHT22;6529;50.566;9.774;2023-05-07T06:16:53;14.50;1.00
12926;DHT22;6529;50.566;9.774;2023-05-07T06:19:19;14.50;1.00
12926;DHT22;6529;50.566;9.774;2023-05-07T06:21:48;14.40;1.00
12926;DHT22;6529;50.566;9.774;2023-05-07T06:24:14;14.50;1.00
12926;DHT22;6529;50.566;9.774;2023-05-07T06:26:39;14.50;1.00
12926;DHT22;6529;50.566;9.774;2023-05-07T06:29:06;14.60;1.00
12926;DHT22;6529;50.566;9.774;2023-05-07T06:31:31;14.60;1.00
12926;DHT22;6529;50.566;9.774;2023-05-07T06:33:57;14.60;1.00
12926;DHT22;6529;50.566;9.774;2023-05-07T06:36:24;14.60;1.00
12926;DHT22;6529;50.566;9.774;2023-05-07T06:38:49;14.60;1.00
12926;DHT22;6529;50.566;9.774;2023-05-07T06:41:15;14.60;1.00
12926;DHT22;6529;50.566;9.774;2023-05-07T06:43:40;14.60;1.00
12926;DHT22;6529;50.566;9.774;2023-05-07T06:46:06;14.70;1.00
12926;DHT22;6529;50.566;9.774;2023-05-07T06:48:32;14.70;1.00
12926;DHT22;6529;50.566;9.774;2023-05-07T06:50:57;14.80;1.00
12926;DHT22;6529;50.566;9.774;2023-05-07T06:53:23;14.80;1.00
12926;DHT22;6529;50.566;9.774;2023-05-07T06:55:49;14.80;99.90
12926;DHT22;6529;50.566;9.774;2023-05-07T06:58:14;14.90;99.90
12926;DHT22;6529;50.566;9.774;2023-05-07T07:00:40;15.00;99.90
12926;DHT22;6529;50.566;9.774;2023-05-07T07:03:06;15.00;1.00
12926;DHT22;6529;50.566;9.774;2023-05-07T07:05:32;15.00;1.00
12926;DHT22;6529;50.566;9.774;2023-05-07T07:07:58;15.00;99.90
12926;DHT22;6529;50.566;9.774;2023-05-07T07:10:23;15.10;99.90
12926;DHT22;6529;50.566;9.774;2023-05-07T07:12:49;15.10;1.00
12926;DHT22;6529;50.566;9.774;2023-05-07T07:15:15;15.20;1.00
12926;DHT22;6529;50.566;9.774;2023-05-07T07:17:41;15.20;20.40
12926;DHT22;6529;50.566;9.774;2023-05-07T07:20:08;15.30;1.00
12926;DHT22;6529;50.566;9.774;2023-05-07T07:22:33;15.30;1.00
12926;DHT22;6529;50.566;9.774;2023-05-07T07:24:59;15.40;99.90
12926;DHT22;6529;50.566;9.774;2023-05-07T07:27:24;15.50;99.90
12926;DHT22;6529;50.566;9.774;2023-05-07T07:29:50;15.60;99.90
12926;DHT22;6529;50.566;9.774;2023-05-07T07:32:16;15.60;1.00
12926;DHT22;6529;50.566;9.774;2023-05-07T07:34:41;15.70;1.00
12926;DHT22;6529;50.566;9.774;2023-05-07T07:37:07;15.70;1.00
12926;DHT22;6529;50.566;9.774;2023-05-07T07:39:33;15.70;99.90
12926;DHT22;6529;50.566;9.774;2023-05-07T07:41:59;15.70;99.90
12926;DHT22;6529;50.566;9.774;2023-05-07T07:44:25;15.70;1.00
12926;DHT22;6529;50.566;9.774;2023-05-07T07:46:51;15.70;1.00
12926;DHT22;6529;50.566;9.774;2023-05-07T07:49:16;15.80;99.90
12926;DHT22;6529;50.566;9.774;2023-05-07T07:51:42;15.90;1.00
12926;DHT22;6529;50.566;9.774;2023-05-07T07:54:08;16.00;1.00
12926;DHT22;6529;50.566;9.774;2023-05-07T07:56:34;16.10;99.90
12926;DHT22;6529;50.566;9.774;2023-05-07T07:58:59;16.30;1.00
12926;DHT22;6529;50.566;9.774;2023-05-07T08:01:25;16.40;1.00
12926;DHT22;6529;50.566;9.774;2023-05-07T08:03:51;16.60;1.00
12926;DHT22;6529;50.566;9.774;2023-05-07T08:06:17;16.80;43.00
12926;DHT22;6529;50.566;9.774;2023-05-07T08:08:43;17.00;1.00
12926;DHT22;6529;50.566;9.774;2023-05-07T08:11:08;17.10;94.50
12926;DHT22;6529;50.566;9.774;2023-05-07T08:13:34;17.20;1.00
12926;DHT22;6529;50.566;9.774;2023-05-07T08:16:00;17.10;1.00
12926;DHT22;6529;50.566;9.774;2023-05-07T08:18:26;17.30;99.90
12926;DHT22;6529;50.566;9.774;2023-05-07T08:20:53;17.30;99.90
12926;DHT22;6529;50.566;9.774;2023-05-07T08:23:19;17.30;99.90
12926;DHT22;6529;50.566;9.774;2023-05-07T08:25:44;17.30;99.90
12926;DHT22;6529;50.566;9.774;2023-05-07T08:28:10;17.40;92.80
12926;DHT22;6529;50.566;9.774;2023-05-07T08:30:36;17.40;99.90
12926;DHT22;6529;50.566;9.774;2023-05-07T08:33:02;17.50;99.90
12926;DHT22;6529;50.566;9.774;2023-05-07T08:35:27;17.60;1.00
12926;DHT22;6529;50.566;9.774;2023-05-07T08:37:53;17.70;99.90
12926;DHT22;6529;50.566;9.774;2023-05-07T08:40:20;17.60;99.90
12926;DHT22;6529;50.566;9.774;2023-05-07T08:42:49;17.50;99.90
12926;DHT22;6529;50.566;9.774;2023-05-07T08:45:15;17.40;99.90
12926;DHT22;6529;50.566;9.774;2023-05-07T08:47:47;17.50;1.00
12926;DHT22;6529;50.566;9.774;2023-05-07T08:50:16;17.60;99.90
12926;DHT22;6529;50.566;9.774;2023-05-07T08:52:41;17.60;99.90
12926;DHT22;6529;50.566;9.774;2023-05-07T08:55:08;17.70;99.90
12926;DHT22;6529;50.566;9.774;2023-05-07T08:57:34;17.70;1.00
12926;DHT22;6529;50.566;9.774;2023-05-07T08:59:59;17.80;99.90
12926;DHT22;6529;50.566;9.774;2023-05-07T09:02:25;18.00;1.00
12926;DHT22;6529;50.566;9.774;2023-05-07T09:04:51;18.10;1.00
12926;DHT22;6529;50.566;9.774;2023-05-07T09:07:19;18.30;1.00
12926;DHT22;6529;50.566;9.774;2023-05-07T09:09:45;18.50;1.00
12926;DHT22;6529;50.566;9.774;2023-05-07T09:12:11;18.70;99.90
12926;DHT22;6529;50.566;9.774;2023-05-07T09:14:37;18.90;64.70
12926;DHT22;6529;50.566;9.774;2023-05-07T09:17:03;18.90;99.90
12926;DHT22;6529;50.566;9.774;2023-05-07T09:19:28;19.00;1.00
12926;DHT22;6529;50.566;9.774;2023-05-07T09:22:03;19.00;99.90
12926;DHT22;6529;50.566;9.774;2023-05-07T09:24:29;19.00;14.50
12926;DHT22;6529;50.566;9.774;2023-05-07T09:26:59;18.90;92.70
12926;DHT22;6529;50.566;9.774;2023-05-07T09:29:25;18.60;1.00
12926;DHT22;6529;50.566;9.774;2023-05-07T09:31:51;18.50;1.00
12926;DHT22;6529;50.566;9.774;2023-05-07T09:34:17;18.40;1.00
12926;DHT22;6529;50.566;9.774;2023-05-07T09:36:42;18.20;1.00
12926;DHT22;6529;50.566;9.774;2023-05-07T09:39:08;18.10;99.90
12926;DHT22;6529;50.566;9.774;2023-05-07T09:41:43;18.10;99.90
12926;DHT22;6529;50.566;9.774;2023-05-07T09:44:09;18.20;1.00
12926;DHT22;6529;50.566;9.774;2023-05-07T09:46:36;18.20;1.00
12926;DHT22;6529;50.566;9.774;2023-05-07T09:49:07;18.30;1.00
12926;DHT22;6529;50.566;9.774;2023-05-07T09:51:47;18.40;99.90
12926;DHT22;6529;50.566;9.774;2023-05-07T09:54:14;18.60;1.00
12926;DHT22;6529;50.566;9.774;2023-05-07T09:56:40;18.90;99.90
12926;DHT22;6529;50.566;9.774;2023-05-07T09:59:11;18.90;1.60
12926;DHT22;6529;50.566;9.774;2023-05-07T10:01:38;18.90;99.90
12926;DHT22;6529;50.566;9.774;2023-05-07T10:04:05;18.90;1.00
12926;DHT22;6529;50.566;9.774;2023-05-07T10:06:31;18.90;99.90
12926;DHT22;6529;50.566;9.774;2023-05-07T10:08:57;18.90;1.00
12926;DHT22;6529;50.566;9.774;2023-05-07T10:11:24;18.90;99.90
12926;DHT22;6529;50.566;9.774;2023-05-07T10:13:50;19.10;1.00
12926;DHT22;6529;50.566;9.774;2023-05-07T10:16:18;19.30;1.00
12926;DHT22;6529;50.566;9.774;2023-05-07T10:18:44;19.50;99.90
12926;DHT22;6529;50.566;9.774;2023-05-07T10:21:17;20.20;99.90
12926;DHT22;6529;50.566;9.774;2023-05-07T10:23:50;20.70;1.00
12926;DHT22;6529;50.566;9.774;2023-05-07T10:26:17;21.20;1.00
12926;DHT22;6529;50.566;9.774;2023-05-07T10:28:47;21.10;1.00
12926;DHT22;6529;50.566;9.774;2023-05-07T10:34:08;21.50;1.00
12926;DHT22;6529;50.566;9.774;2023-05-07T10:36:33;21.80;1.00
12926;DHT22;6529;50.566;9.774;2023-05-07T10:38:59;22.20;1.00
12926;DHT22;6529;50.566;9.774;2023-05-07T10:41:25;22.50;99.90
12926;DHT22;6529;50.566;9.774;2023-05-07T10:43:51;22.60;99.90
12926;DHT22;6529;50.566;9.774;2023-05-07T10:46:20;22.80;99.90
12926;DHT22;6529;50.566;9.774;2023-05-07T10:51:32;22.70;1.00
12926;DHT22;6529;50.566;9.774;2023-05-07T10:56:37;22.20;99.90
12926;DHT22;6529;50.566;9.774;2023-05-07T11:02:02;22.10;6.50
12926;DHT22;6529;50.566;9.774;2023-05-07T11:04:29;22.10;99.90
12926;DHT22;6529;50.566;9.774;2023-05-07T11:10:07;21.90;99.90
12926;DHT22;6529;50.566;9.774;2023-05-07T11:15:05;22.00;99.90
12926;DHT22;6529;50.566;9.774;2023-05-07T11:17:32;22.10;48.50
12926;DHT22;6529;50.566;9.774;2023-05-07T11:20:00;22.20;47.90
12926;DHT22;6529;50.566;9.774;2023-05-07T11:25:03;22.50;63.30
12926;DHT22;6529;50.566;9.774;2023-05-07T11:27:29;22.70;90.30
12926;DHT22;6529;50.566;9.774;2023-05-07T11:29:55;22.80;1.00
12926;DHT22;6529;50.566;9.774;2023-05-07T11:32:28;22.70;1.00
12926;DHT22;6529;50.566;9.774;2023-05-07T11:34:55;22.50;1.00
12926;DHT22;6529;50.566;9.774;2023-05-07T11:37:22;22.40;1.00
12926;DHT22;6529;50.566;9.774;2023-05-07T11:39:48;22.50;1.30
12926;DHT22;6529;50.566;9.774;2023-05-07T11:42:28;22.70;1.00
12926;DHT22;6529;50.566;9.774;2023-05-07T11:44:53;22.60;1.00
12926;DHT22;6529;50.566;9.774;2023-05-07T11:47:20;22.60;1.00
12926;DHT22;6529;50.566;9.774;2023-05-07T11:49:50;23.00;1.00
12926;DHT22;6529;50.566;9.774;2023-05-07T11:52:17;23.10;1.00
12926;DHT22;6529;50.566;9.774;2023-05-07T11:54:56;22.90;1.00
12926;DHT22;6529;50.566;9.774;2023-05-07T11:57:23;22.80;1.00
12926;DHT22;6529;50.566;9.774;2023-05-07T11:59:53;23.00;1.00
12926;DHT22;6529;50.566;9.774;2023-05-07T12:02:19;23.00;1.00
12926;DHT22;6529;50.566;9.774;2023-05-07T12:04:45;22.30;1.00
12926;DHT22;6529;50.566;9.774;2023-05-07T12:07:15;21.90;99.90
12926;DHT22;6529;50.566;9.774;2023-05-07T12:09:45;21.70;99.90
12926;DHT22;6529;50.566;9.774;2023-05-07T12:12:11;21.80;99.90
12926;DHT22;6529;50.566;9.774;2023-05-07T12:14:41;21.60;99.90
12926;DHT22;6529;50.566;9.774;2023-05-07T12:17:08;21.50;99.90
12926;DHT22;6529;50.566;9.774;2023-05-07T12:19:34;21.40;1.00
12926;DHT22;6529;50.566;9.774;2023-05-07T12:22:02;21.70;1.00
12926;DHT22;6529;50.566;9.774;2023-05-07T12:24:27;21.80;99.90
12926;DHT22;6529;50.566;9.774;2023-05-07T12:26:53;21.80;1.00
12926;DHT22;6529;50.566;9.774;2023-05-07T12:29:22;21.70;99.90
12926;DHT22;6529;50.566;9.774;2023-05-07T12:31:49;21.60;99.90
12926;DHT22;6529;50.566;9.774;2023-05-07T12:34:15;21.50;99.90
12926;DHT22;6529;50.566;9.774;2023-05-07T12:36:41;21.80;99.90
12926;DHT22;6529;50.566;9.774;2023-05-07T12:39:08;22.30;99.90
12926;DHT22;6529;50.566;9.774;2023-05-07T12:41:56;22.60;1.00
12926;DHT22;6529;50.566;9.774;2023-05-07T12:44:23;22.50;30.00
12926;DHT22;6529;50.566;9.774;2023-05-07T12:46:49;22.60;99.90
12926;DHT22;6529;50.566;9.774;2023-05-07T12:49:15;22.50;99.90
12926;DHT22;6529;50.566;9.774;2023-05-07T12:51:41;22.50;1.00
12926;DHT22;6529;50.566;9.774;2023-05-07T12:54:06;22.60;1.00
12926;DHT22;6529;50.566;9.774;2023-05-07T12:56:35;22.70;1.00
12926;DHT22;6529;50.566;9.774;2023-05-07T12:59:01;22.50;1.00
12926;DHT22;6529;50.566;9.774;2023-05-07T13:01:30;22.40;1.00
12926;DHT22;6529;50.566;9.774;2023-05-07T13:04:00;22.20;42.60
12926;DHT22;6529;50.566;9.774;2023-05-07T13:06:26;21.80;71.60
12926;DHT22;6529;50.566;9.774;2023-05-07T13:08:52;21.70;92.40
12926;DHT22;6529;50.566;9.774;2023-05-07T13:11:17;22.00;99.90
12926;DHT22;6529;50.566;9.774;2023-05-07T13:13:43;22.30;99.90
12926;DHT22;6529;50.566;9.774;2023-05-07T13:16:10;22.30;1.00
12926;DHT22;6529;50.566;9.774;2023-05-07T13:18:37;22.20;1.00
12926;DHT22;6529;50.566;9.774;2023-05-07T13:21:03;22.20;1.00
12926;DHT22;6529;50.566;9.774;2023-05-07T13:23:29;22.10;99.90
12926;DHT22;6529;50.566;9.774;2023-05-07T13:25:55;22.10;99.90
12926;DHT22;6529;50.566;9.774;2023-05-07T13:28:22;22.10;99.90
12926;DHT22;6529;50.566;9.774;2023-05-07T13:30:48;22.50;1.10
12926;DHT22;6529;50.566;9.774;2023-05-07T13:33:13;22.70;1.00
12926;DHT22;6529;50.566;9.774;2023-05-07T13:35:40;22.60;1.00
12926;DHT22;6529;50.566;9.774;2023-05-07T13:38:06;22.60;1.00
12926;DHT22;6529;50.566;9.774;2023-05-07T13:40:32;22.50;1.00
12926;DHT22;6529;50.566;9.774;2023-05-07T13:42:58;23.00;1.00
12926;DHT22;6529;50.566;9.774;2023-05-07T13:45:25;23.30;1.00
12926;DHT22;6529;50.566;9.774;2023-05-07T13:47:51;23.00;1.00
12926;DHT22;6529;50.566;9.774;2023-05-07T13:50:17;22.80;1.00
12926;DHT22;6529;50.566;9.774;2023-05-07T13:52:44;22.80;1.00
12926;DHT22;6529;50.566;9.774;2023-05-07T13:55:16;23.20;1.00
12926;DHT22;6529;50.566;9.774;2023-05-07T13:57:42;23.40;1.00
12926;DHT22;6529;50.566;9.774;2023-05-07T14:00:08;23.30;1.00
12926;DHT22;6529;50.566;9.774;2023-05-07T14:02:33;23.20;1.00
12926;DHT22;6529;50.566;9.774;2023-05-07T14:04:59;23.10;1.00
12926;DHT22;6529;50.566;9.774;2023-05-07T14:07:25;23.40;1.00
12926;DHT22;6529;50.566;9.774;2023-05-07T14:09:50;23.60;1.00
12926;DHT22;6529;50.566;9.774;2023-05-07T14:12:16;23.40;1.00
12926;DHT22;6529;50.566;9.774;2023-05-07T14:14:41;23.50;1.00
12926;DHT22;6529;50.566;9.774;2023-05-07T14:17:07;23.90;1.00
12926;DHT22;6529;50.566;9.774;2023-05-07T14:19:33;23.70;99.90
12926;DHT22;6529;50.566;9.774;2023-05-07T14:21:59;23.70;99.90
12926;DHT22;6529;50.566;9.774;2023-05-07T14:24:24;24.20;99.90
12926;DHT22;6529;50.566;9.774;2023-05-07T14:26:50;24.30;99.90
12926;DHT22;6529;50.566;9.774;2023-05-07T14:29:16;24.50;99.90
12926;DHT22;6529;50.566;9.774;2023-05-07T14:31:44;24.30;99.90
12926;DHT22;6529;50.566;9.774;2023-05-07T14:34:10;23.80;99.90
12926;DHT22;6529;50.566;9.774;2023-05-07T14:36:35;23.10;99.90
12926;DHT22;6529;50.566;9.774;2023-05-07T14:39:01;22.60;99.90
12926;DHT22;6529;50.566;9.774;2023-05-07T14:41:27;22.60;1.00
12926;DHT22;6529;50.566;9.774;2023-05-07T14:43:53;22.70;1.00
12926;DHT22;6529;50.566;9.774;2023-05-07T14:46:18;22.50;1.00
12926;DHT22;6529;50.566;9.774;2023-05-07T14:48:45;22.30;1.00
12926;DHT22;6529;50.566;9.774;2023-05-07T14:51:11;22.40;1.00
12926;DHT22;6529;50.566;9.774;2023-05-07T14:53:37;22.50;1.00
12926;DHT22;6529;50.566;9.774;2023-05-07T14:56:03;22.60;1.00
12926;DHT22;6529;50.566;9.774;2023-05-07T14:58:29;22.20;1.00
12926;DHT22;6529;50.566;9.774;2023-05-07T15:00:55;22.50;1.00
12926;DHT22;6529;50.566;9.774;2023-05-07T15:03:20;22.60;1.00
12926;DHT22;6529;50.566;9.774;2023-05-07T15:05:47;22.60;1.00
12926;DHT22;6529;50.566;9.774;2023-05-07T15:08:12;22.30;1.00
12926;DHT22;6529;50.566;9.774;2023-05-07T15:10:38;22.30;1.00
12926;DHT22;6529;50.566;9.774;2023-05-07T15:13:07;22.40;1.00
12926;DHT22;6529;50.566;9.774;2023-05-07T15:15:33;22.20;1.00
12926;DHT22;6529;50.566;9.774;2023-05-07T15:17:58;22.10;1.00
12926;DHT22;6529;50.566;9.774;2023-05-07T15:20:25;22.50;1.00
12926;DHT22;6529;50.566;9.774;2023-05-07T15:22:51;23.10;1.00
12926;DHT22;6529;50.566;9.774;2023-05-07T15:25:17;23.40;99.90
12926;DHT22;6529;50.566;9.774;2023-05-07T15:27:42;23.60;99.90
12926;DHT22;6529;50.566;9.774;2023-05-07T15:30:08;23.00;99.90
12926;DHT22;6529;50.566;9.774;2023-05-07T15:32:36;22.70;99.90
12926;DHT22;6529;50.566;9.774;2023-05-07T15:35:02;22.90;1.00
12926;DHT22;6529;50.566;9.774;2023-05-07T15:37:30;23.10;99.90
12926;DHT22;6529;50.566;9.774;2023-05-07T15:39:56;22.80;99.90
12926;DHT22;6529;50.566;9.774;2023-05-07T15:42:22;22.60;99.90
12926;DHT22;6529;50.566;9.774;2023-05-07T15:44:47;22.50;99.90
12926;DHT22;6529;50.566;9.774;2023-05-07T15:47:14;22.30;99.90
12926;DHT22;6529;50.566;9.774;2023-05-07T15:49:40;22.30;1.00
12926;DHT22;6529;50.566;9.774;2023-05-07T15:52:06;22.30;99.90
12926;DHT22;6529;50.566;9.774;2023-05-07T15:54:32;22.20;1.00
12926;DHT22;6529;50.566;9.774;2023-05-07T15:56:57;21.90;1.00
12926;DHT22;6529;50.566;9.774;2023-05-07T15:59:23;22.10;1.00
12926;DHT22;6529;50.566;9.774;2023-05-07T16:01:48;22.10;1.00
12926;DHT22;6529;50.566;9.774;2023-05-07T16:04:14;22.00;1.00
12926;DHT22;6529;50.566;9.774;2023-05-07T16:06:40;22.00;1.00
12926;DHT22;6529;50.566;9.774;2023-05-07T16:09:06;21.90;1.00